Time;durP1;ratioP1;P1;durP2;ratioP2;P2;SDS_P1;SDS_P2;PMS_P1;PMS_P2;Temp;Humidity;BMP_temperature;BMP_pressure;BME280_temperature;BME280_humidity;BME280_pressure;Samples;Min_cycle;Max_cycle;Signal;HPM_P1;HPM_P2
2023/11/17 00:02:25;;;;;;;1.73;1.63;;;4.90;99.90;;;;;;5040238;28;20912;-61
2023/11/17 00:04:53;;;;;;;1.50;1.40;;;4.90;99.90;;;;;;5041361;28;20467;-61
2023/11/17 00:07:22;;;;;;;1.57;1.47;;;4.90;99.90;;;;;;5042065;28;20525;-61
2023/11/17 00:09:50;;;;;;;1.90;1.80;;;4.90;99.90;;;;;;5040397;28;20525;-61
2023/11/17 00:12:18;;;;;;;1.50;1.40;;;4.90;99.90;;;;;;5039562;28;20495;-61
2023/11/17 00:14:46;;;;;;;1.60;1.50;;;4.90;99.90;;;;;;5039284;28;21088;-61
2023/11/17 00:17:16;;;;;;;1.70;1.60;;;4.90;99.90;;;;;;5040021;28;20497;-61
2023/11/17 00:19:45;;;;;;;1.50;1.40;;;4.90;99.90;;;;;;5040167;28;20906;-61
2023/11/17 00:22:14;;;;;;;1.30;1.20;;;4.90;99.90;;;;;;5039025;28;20495;-61
2023/11/17 00:24:43;;;;;;;1.60;1.50;;;4.90;99.90;;;;;;5034968;28;20486;-61
2023/11/17 00:27:12;;;;;;;4.40;1.50;;;4.90;99.90;;;;;;5039003;28;20845;-61
2023/11/17 00:29:40;;;;;;;1.50;1.40;;;4.90;99.90;;;;;;5031444;28;20494;-61
2023/11/17 00:32:08;;;;;;;2.37;1.77;;;4.90;99.90;;;;;;5028031;28;20534;-61
2023/11/17 00:34:38;;;;;;;1.60;1.50;;;4.90;99.90;;;;;;5030685;28;20497;-61
2023/11/17 00:37:07;;;;;;;1.73;1.63;;;4.80;99.90;;;;;;5025357;28;20564;-61
2023/11/17 00:39:36;;;;;;;1.63;1.53;;;4.80;99.90;;;;;;5025023;28;20479;-61
2023/11/17 00:42:07;;;;;;;1.60;1.50;;;4.90;99.90;;;;;;5027694;28;20489;-60
2023/11/17 00:44:35;;;;;;;2.10;1.90;;;4.90;99.90;;;;;;5026634;28;20478;-61
2023/11/17 00:47:04;;;;;;;1.43;1.33;;;4.90;99.90;;;;;;5023195;28;20482;-62
2023/11/17 00:49:33;;;;;;;1.50;1.40;;;4.90;99.90;;;;;;5028894;28;22070;-61
2023/11/17 00:52:05;;;;;;;1.57;1.47;;;4.80;99.90;;;;;;5026807;28;20563;-61
2023/11/17 00:54:40;;;;;;;1.80;1.70;;;4.80;99.90;;;;;;5027193;28;20487;-60
2023/11/17 00:57:10;;;;;;;1.83;1.70;;;4.80;99.90;;;;;;5026648;28;22110;-61
2023/11/17 00:59:38;;;;;;;2.07;1.80;;;4.80;99.90;;;;;;5027615;28;20557;-62
2023/11/17 01:02:07;;;;;;;1.50;1.40;;;4.80;99.90;;;;;;5033550;28;21084;-61
2023/11/17 01:04:35;;;;;;;1.80;1.60;;;4.70;99.90;;;;;;5034910;28;20851;-61
2023/11/17 01:07:04;;;;;;;1.60;1.40;;;4.80;99.90;;;;;;5034991;28;20478;-60
2023/11/17 01:09:32;;;;;;;2.00;1.90;;;4.70;99.90;;;;;;5034350;28;20482;-61
2023/11/17 01:12:00;;;;;;;1.63;1.53;;;4.70;99.90;;;;;;5030436;28;20490;-61
2023/11/17 01:14:28;;;;;;;1.43;1.30;;;4.70;99.90;;;;;;5039036;28;20574;-61
2023/11/17 01:16:56;;;;;;;1.53;1.43;;;4.80;99.90;;;;;;5034505;28;20622;-61
2023/11/17 01:19:25;;;;;;;1.73;1.43;;;4.80;99.90;;;;;;5038330;28;20479;-61
2023/11/17 01:21:53;;;;;;;1.40;1.30;;;4.80;99.90;;;;;;5036305;28;20486;-61
2023/11/17 01:24:23;;;;;;;1.87;1.67;;;4.80;99.90;;;;;;5038997;28;20498;-60
2023/11/17 01:26:51;;;;;;;1.33;1.23;;;4.80;99.90;;;;;;5034052;28;20675;-60
2023/11/17 01:29:19;;;;;;;1.47;1.37;;;4.80;99.90;;;;;;5037496;28;20509;-61
2023/11/17 01:31:47;;;;;;;3.20;1.53;;;4.80;99.90;;;;;;5035833;28;20523;-61
2023/11/17 01:34:16;;;;;;;1.80;1.70;;;4.90;99.90;;;;;;5034443;28;20474;-61
2023/11/17 01:36:44;;;;;;;1.47;1.37;;;4.80;99.90;;;;;;5035854;28;20470;-61
2023/11/17 01:39:13;;;;;;;2.00;1.70;;;4.80;99.90;;;;;;5038994;28;20994;-61
2023/11/17 01:41:43;;;;;;;2.03;1.70;;;4.90;99.90;;;;;;5032319;28;20470;-61
2023/11/17 01:44:11;;;;;;;3.20;1.30;;;4.80;99.90;;;;;;5035498;28;20553;-61
2023/11/17 01:46:39;;;;;;;1.60;1.50;;;4.80;99.90;;;;;;5034537;28;20558;-61
2023/11/17 01:49:08;;;;;;;1.47;1.37;;;4.80;99.90;;;;;;5034647;28;21064;-61
2023/11/17 01:51:38;;;;;;;1.57;1.47;;;4.80;99.90;;;;;;5035226;28;20470;-61
2023/11/17 01:54:07;;;;;;;1.33;1.23;;;4.80;99.90;;;;;;5038342;28;20470;-61
2023/11/17 01:56:35;;;;;;;1.80;1.70;;;4.80;99.90;;;;;;5036846;28;20533;-61
2023/11/17 01:59:05;;;;;;;1.40;1.30;;;4.80;99.90;;;;;;5037278;28;20506;-60
2023/11/17 02:01:34;;;;;;;1.60;1.50;;;4.80;99.90;;;;;;5037597;28;20524;-61
2023/11/17 02:04:04;;;;;;;1.47;1.37;;;4.80;99.90;;;;;;5032463;28;20473;-61
2023/11/17 02:06:43;;;;;;;1.60;1.50;;;4.80;99.90;;;;;;5035974;28;21283;-61
2023/11/17 02:09:22;;;;;;;1.47;1.37;;;4.80;99.90;;;;;;5035878;28;20486;-61
2023/11/17 02:11:58;;;;;;;1.50;1.40;;;4.80;99.90;;;;;;5034040;28;20563;-60
2023/11/17 02:14:35;;;;;;;1.73;1.63;;;4.90;99.90;;;;;;5032621;28;20568;-61
2023/11/17 02:17:06;;;;;;;5.50;1.43;;;4.90;99.90;;;;;;5037492;28;20474;-61
2023/11/17 02:19:38;;;;;;;1.47;1.30;;;4.90;99.90;;;;;;5038661;28;20497;-61
2023/11/17 02:22:09;;;;;;;1.57;1.47;;;4.90;99.90;;;;;;5042560;28;20523;-61
2023/11/17 02:24:44;;;;;;;1.43;1.33;;;4.90;99.90;;;;;;5042703;28;20474;-61
2023/11/17 02:27:25;;;;;;;1.70;1.60;;;4.90;99.90;;;;;;5036960;28;20517;-61
2023/11/17 02:30:02;;;;;;;1.93;1.60;;;4.90;99.90;;;;;;5040608;28;20473;-61
2023/11/17 02:32:32;;;;;;;1.23;1.20;;;4.90;99.90;;;;;;5040163;28;20496;-61
2023/11/17 02:35:01;;;;;;;2.23;2.03;;;4.90;99.90;;;;;;5038620;28;20493;-61
2023/11/17 02:37:29;;;;;;;1.60;1.50;;;4.90;99.90;;;;;;5039246;28;20568;-61
2023/11/17 02:39:57;;;;;;;1.70;1.60;;;4.90;99.90;;;;;;5039875;28;20472;-61
2023/11/17 02:42:26;;;;;;;1.80;1.70;;;4.80;99.90;;;;;;5036621;28;20505;-61
2023/11/17 02:45:00;;;;;;;1.80;1.50;;;4.80;99.90;;;;;;5039041;28;20520;-61
2023/11/17 02:47:34;;;;;;;1.90;1.80;;;4.80;99.90;;;;;;5037686;28;20472;-61
2023/11/17 02:50:09;;;;;;;1.70;1.60;;;4.80;99.90;;;;;;5039282;28;20518;-61
2023/11/17 02:52:47;;;;;;;1.73;1.63;;;4.80;99.90;;;;;;5031392;28;20493;-61
2023/11/17 02:55:16;;;;;;;2.43;1.70;;;4.80;99.90;;;;;;5034376;28;20499;-60
2023/11/17 02:57:46;;;;;;;1.53;1.20;;;4.80;99.90;;;;;;5030834;28;20463;-60
2023/11/17 03:00:16;;;;;;;1.87;1.73;;;4.80;99.90;;;;;;5035114;28;20477;-60
2023/11/17 03:02:44;;;;;;;1.40;1.27;;;4.80;99.90;;;;;;5039863;28;20494;-61
2023/11/17 03:05:16;;;;;;;2.70;1.83;;;4.70;99.90;;;;;;5036209;28;20479;-61
2023/11/17 03:07:48;;;;;;;2.20;2.00;;;4.70;99.90;;;;;;5033744;28;20565;-61
2023/11/17 03:10:18;;;;;;;1.93;1.70;;;4.70;99.90;;;;;;5038661;28;20532;-61
2023/11/17 03:12:46;;;;;;;1.77;1.67;;;4.70;99.90;;;;;;5039616;28;20894;-61
2023/11/17 03:15:16;;;;;;;1.97;1.80;;;4.70;99.90;;;;;;5029184;28;20508;-61
2023/11/17 03:17:44;;;;;;;2.10;1.90;;;4.70;99.90;;;;;;5035760;28;24064;-61
2023/11/17 03:20:14;;;;;;;2.00;1.80;;;4.70;99.90;;;;;;5029010;28;20521;-61
2023/11/17 03:22:44;;;;;;;1.77;1.67;;;4.80;99.90;;;;;;5033580;28;20493;-61
2023/11/17 03:25:15;;;;;;;2.27;2.07;;;4.70;99.90;;;;;;5038352;28;20478;-61
2023/11/17 03:27:44;;;;;;;1.87;1.77;;;4.80;99.90;;;;;;5037779;28;20602;-61
2023/11/17 03:30:13;;;;;;;1.50;1.40;;;4.80;99.90;;;;;;5036525;28;20470;-60
2023/11/17 03:32:42;;;;;;;4.40;1.73;;;4.80;99.90;;;;;;5035928;28;20677;-61
2023/11/17 03:35:10;;;;;;;1.70;1.60;;;4.90;99.90;;;;;;5028697;28;20492;-61
2023/11/17 03:37:39;;;;;;;1.90;1.80;;;4.80;99.90;;;;;;5027210;28;20565;-61
2023/11/17 03:40:11;;;;;;;4.60;1.70;;;4.80;99.90;;;;;;5034294;28;20602;-61
2023/11/17 03:42:40;;;;;;;1.90;1.73;;;4.80;99.90;;;;;;5029171;28;20493;-61
2023/11/17 03:45:15;;;;;;;1.80;1.70;;;4.70;99.90;;;;;;5027902;28;20462;-61
2023/11/17 03:47:45;;;;;;;1.77;1.60;;;4.80;99.90;;;;;;5026951;28;21809;-61
2023/11/17 03:50:13;;;;;;;1.90;1.80;;;4.80;99.90;;;;;;5027705;28;21070;-61
2023/11/17 03:52:42;;;;;;;1.60;1.50;;;4.80;99.90;;;;;;5029036;28;20495;-61
2023/11/17 03:55:11;;;;;;;2.00;1.90;;;4.80;99.90;;;;;;5033054;28;20552;-61
2023/11/17 03:57:39;;;;;;;1.70;1.60;;;4.70;99.90;;;;;;5028803;28;22406;-61
2023/11/17 04:00:09;;;;;;;1.90;1.70;;;4.70;99.90;;;;;;5026884;28;20558;-61
2023/11/17 04:02:37;;;;;;;1.70;1.60;;;4.70;99.90;;;;;;5028104;28;21341;-61
2023/11/17 04:05:13;;;;;;;1.90;1.80;;;4.70;99.90;;;;;;5026638;28;20479;-61
2023/11/17 04:07:42;;;;;;;2.40;2.20;;;4.70;99.90;;;;;;5028773;28;20466;-61
2023/11/17 04:10:11;;;;;;;2.50;2.30;;;4.80;99.90;;;;;;5028617;28;20467;-61
2023/11/17 04:12:40;;;;;;;2.40;2.20;;;4.70;99.90;;;;;;5032352;28;20552;-61
2023/11/17 04:15:09;;;;;;;1.93;1.83;;;4.70;99.90;;;;;;5023413;28;20479;-62
2023/11/17 04:17:41;;;;;;;1.80;1.70;;;4.80;99.90;;;;;;5040128;28;20482;-61
2023/11/17 04:20:14;;;;;;;1.83;1.73;;;4.80;99.90;;;;;;5029032;28;21145;-61
2023/11/17 04:22:44;;;;;;;1.93;1.73;;;4.80;99.90;;;;;;5027097;28;20495;-60
2023/11/17 04:25:12;;;;;;;2.03;1.83;;;4.80;99.90;;;;;;5027776;28;21050;-61
2023/11/17 04:27:41;;;;;;;2.17;1.90;;;4.80;99.90;;;;;;5030284;28;20569;-61
2023/11/17 04:30:11;;;;;;;1.70;1.60;;;4.70;99.90;;;;;;5027490;28;20919;-60
2023/11/17 04:32:39;;;;;;;1.93;1.77;;;4.70;99.90;;;;;;5028203;28;20490;-61
2023/11/17 04:35:10;;;;;;;1.97;1.80;;;4.70;99.90;;;;;;5027884;28;20984;-61
2023/11/17 04:37:40;;;;;;;1.83;1.73;;;4.80;99.90;;;;;;5037386;28;21013;-61
2023/11/17 04:40:11;;;;;;;2.27;2.07;;;4.80;99.90;;;;;;5038827;28;20852;-61
2023/11/17 04:42:39;;;;;;;1.83;1.73;;;4.70;99.90;;;;;;5037608;28;20486;-61
2023/11/17 04:45:09;;;;;;;1.97;1.87;;;4.70;99.90;;;;;;5024233;28;21792;-61
2023/11/17 04:47:37;;;;;;;2.50;2.30;;;4.70;99.90;;;;;;5032313;28;20489;-61
2023/11/17 04:50:09;;;;;;;2.37;2.17;;;4.70;99.90;;;;;;5038378;28;20466;-61
2023/11/17 04:52:37;;;;;;;2.23;1.80;;;4.70;99.90;;;;;;5038639;28;20486;-61
2023/11/17 04:55:06;;;;;;;2.40;2.20;;;4.70;99.90;;;;;;5033326;28;20481;-61
2023/11/17 04:57:37;;;;;;;2.30;2.10;;;4.60;99.90;;;;;;5037636;28;20868;-61
2023/11/17 05:00:06;;;;;;;2.30;2.10;;;4.60;99.90;;;;;;5032618;28;20563;-60
2023/11/17 05:02:38;;;;;;;2.63;2.00;;;4.60;99.90;;;;;;5022811;28;20588;-61
2023/11/17 05:05:09;;;;;;;2.50;1.83;;;4.60;99.90;;;;;;5029160;28;20469;-61
2023/11/17 05:07:37;;;;;;;2.30;2.10;;;4.60;99.90;;;;;;5039513;28;22109;-61
2023/11/17 05:10:08;;;;;;;2.47;2.27;;;4.60;99.90;;;;;;5037935;28;21043;-61
2023/11/17 05:12:36;;;;;;;2.20;2.00;;;4.60;99.90;;;;;;5039072;28;20533;-60
2023/11/17 05:15:07;;;;;;;2.43;2.23;;;4.70;99.90;;;;;;5038481;28;20471;-61
2023/11/17 05:17:43;;;;;;;2.10;1.90;;;4.60;99.90;;;;;;5038974;28;20482;-60
2023/11/17 05:20:12;;;;;;;2.33;2.10;;;4.60;99.90;;;;;;5040108;28;20976;-61
2023/11/17 05:22:41;;;;;;;3.00;2.50;;;4.60;99.90;;;;;;5038465;28;20562;-61
2023/11/17 05:25:11;;;;;;;2.77;2.47;;;4.60;99.90;;;;;;5038924;28;20500;-61
2023/11/17 05:27:40;;;;;;;2.63;2.43;;;4.60;99.90;;;;;;5037331;28;20483;-61
2023/11/17 05:30:10;;;;;;;2.60;2.10;;;4.60;99.90;;;;;;5037021;28;20479;-61
2023/11/17 05:32:40;;;;;;;2.30;2.10;;;4.60;99.90;;;;;;5036475;28;21062;-61
2023/11/17 05:35:09;;;;;;;1.97;1.87;;;4.60;99.90;;;;;;5038514;28;20912;-61
2023/11/17 05:37:37;;;;;;;2.87;2.57;;;4.60;99.90;;;;;;5039233;28;20491;-61
2023/11/17 05:40:07;;;;;;;2.60;2.10;;;4.60;99.90;;;;;;5038088;28;20466;-61
2023/11/17 05:42:36;;;;;;;3.23;2.50;;;4.50;99.90;;;;;;5034221;28;20494;-61
2023/11/17 05:45:06;;;;;;;2.43;2.23;;;4.50;99.90;;;;;;5037847;28;20482;-61
2023/11/17 05:47:34;;;;;;;2.70;2.50;;;4.60;99.90;;;;;;5039377;28;20477;-61
2023/11/17 05:50:03;;;;;;;2.50;2.30;;;4.50;99.90;;;;;;5041037;28;20469;-62
2023/11/17 05:52:31;;;;;;;3.40;2.47;;;4.50;99.90;;;;;;5037211;28;20573;-62
2023/11/17 05:54:59;;;;;;;3.13;2.30;;;4.60;99.90;;;;;;5042578;28;20525;-62
2023/11/17 05:57:27;;;;;;;2.80;2.60;;;4.60;99.90;;;;;;5034351;28;20491;-61
2023/11/17 05:59:57;;;;;;;3.30;3.00;;;4.60;99.90;;;;;;5040869;28;20470;-62
2023/11/17 06:02:27;;;;;;;3.40;3.03;;;4.60;99.90;;;;;;5037197;28;20494;-62
2023/11/17 06:04:55;;;;;;;3.00;2.80;;;4.60;99.90;;;;;;5038879;28;20549;-61
2023/11/17 06:07:25;;;;;;;2.77;2.57;;;4.60;99.90;;;;;;5037829;28;20470;-62
2023/11/17 06:09:54;;;;;;;3.10;2.87;;;4.60;99.90;;;;;;5044144;28;20478;-62
2023/11/17 06:12:22;;;;;;;2.63;2.43;;;4.60;99.90;;;;;;5043780;28;20486;-61
2023/11/17 06:14:50;;;;;;;3.30;3.00;;;4.60;99.90;;;;;;5032484;28;20569;-62
2023/11/17 06:17:19;;;;;;;2.40;2.20;;;4.60;99.90;;;;;;5030495;28;20490;-61
2023/11/17 06:19:47;;;;;;;3.50;2.90;;;4.60;99.90;;;;;;5031535;28;20467;-61
2023/11/17 06:22:15;;;;;;;2.60;2.40;;;4.50;99.90;;;;;;5020378;28;21053;-61
2023/11/17 06:24:43;;;;;;;2.90;2.60;;;4.50;99.90;;;;;;5024822;28;20544;-61
2023/11/17 06:27:13;;;;;;;3.37;2.77;;;4.60;99.90;;;;;;5029937;28;20477;-61
2023/11/17 06:29:41;;;;;;;3.00;2.80;;;4.50;99.90;;;;;;5034171;28;20478;-62
2023/11/17 06:32:09;;;;;;;2.30;2.10;;;4.60;99.90;;;;;;5034295;28;20544;-61
2023/11/17 06:34:39;;;;;;;3.00;2.50;;;4.60;99.90;;;;;;5033485;28;20475;-63
2023/11/17 06:37:07;;;;;;;2.20;2.00;;;4.60;99.90;;;;;;5037211;28;21180;-61
2023/11/17 06:39:35;;;;;;;3.10;2.80;;;4.60;99.90;;;;;;5038975;28;20501;-61
2023/11/17 06:42:04;;;;;;;2.57;2.37;;;4.60;99.90;;;;;;5037314;28;20586;-61
2023/11/17 06:44:35;;;;;;;3.20;2.53;;;4.60;99.90;;;;;;5040899;28;20553;-61
2023/11/17 06:47:06;;;;;;;2.67;2.33;;;4.60;99.90;;;;;;5036592;28;20550;-61
2023/11/17 06:49:34;;;;;;;3.17;2.70;;;4.60;99.90;;;;;;5041374;28;20482;-61
2023/11/17 06:52:07;;;;;;;2.40;2.17;;;4.60;99.90;;;;;;5037414;28;20486;-61
2023/11/17 06:54:35;;;;;;;2.70;2.50;;;4.60;99.90;;;;;;5040231;28;20468;-61
2023/11/17 06:57:03;;;;;;;3.03;2.73;;;4.50;99.90;;;;;;5035383;28;20470;-62
2023/11/17 06:59:31;;;;;;;2.63;2.40;;;4.50;99.90;;;;;;5039355;28;21032;-61
2023/11/17 07:02:00;;;;;;;3.23;2.97;;;4.50;99.90;;;;;;5033124;28;20500;-61
2023/11/17 07:04:30;;;;;;;3.20;2.90;;;4.40;99.90;;;;;;5036099;28;20561;-61
2023/11/17 07:06:59;;;;;;;3.97;3.57;;;4.40;99.90;;;;;;5040470;28;20468;-61
2023/11/17 07:09:32;;;;;;;6.90;3.40;;;4.40;99.90;;;;;;5039425;28;20474;-62
2023/11/17 07:12:01;;;;;;;3.70;3.40;;;4.50;99.90;;;;;;5038604;28;20490;-62
2023/11/17 07:14:30;;;;;;;3.50;3.20;;;4.40;99.90;;;;;;5040118;28;20478;-61
2023/11/17 07:16:58;;;;;;;5.57;4.33;;;4.40;99.90;;;;;;5035252;28;20996;-61
2023/11/17 07:19:26;;;;;;;4.90;4.47;;;4.40;99.90;;;;;;5039090;28;20490;-62
2023/11/17 07:21:56;;;;;;;4.57;4.17;;;4.40;99.90;;;;;;5041101;28;20526;-62
2023/11/17 07:24:24;;;;;;;4.63;4.20;;;4.40;99.90;;;;;;5037564;28;20474;-61
2023/11/17 07:26:54;;;;;;;5.03;4.53;;;4.40;99.90;;;;;;5039602;28;20512;-62
2023/11/17 07:29:28;;;;;;;5.70;4.43;;;4.40;99.90;;;;;;5038351;28;20477;-61
2023/11/17 07:31:56;;;;;;;5.13;4.73;;;4.40;99.90;;;;;;5035912;28;20499;-62
2023/11/17 07:34:24;;;;;;;4.77;4.37;;;4.50;99.90;;;;;;5041115;28;20506;-61
2023/11/17 07:36:54;;;;;;;5.33;4.83;;;4.40;99.90;;;;;;5038168;28;20514;-62
2023/11/17 07:39:23;;;;;;;6.23;5.57;;;4.40;99.90;;;;;;5033435;28;20521;-62
2023/11/17 07:41:53;;;;;;;5.27;4.77;;;4.40;99.90;;;;;;5037107;28;20485;-61
2023/11/17 07:44:21;;;;;;;5.60;5.20;;;4.40;99.90;;;;;;5037954;28;20897;-62
2023/11/17 07:46:50;;;;;;;5.50;5.00;;;4.40;99.90;;;;;;5038082;28;20472;-62
2023/11/17 07:49:19;;;;;;;6.27;5.67;;;4.40;99.90;;;;;;5038417;28;20566;-62
2023/11/17 07:51:48;;;;;;;5.20;4.70;;;4.40;99.90;;;;;;5038492;28;20583;-61
2023/11/17 07:54:17;;;;;;;5.47;5.07;;;4.50;99.90;;;;;;5038332;28;21237;-61
2023/11/17 07:56:46;;;;;;;5.30;4.90;;;4.50;99.90;;;;;;5036993;28;20937;-61
2023/11/17 07:59:18;;;;;;;5.20;4.80;;;4.50;99.90;;;;;;5036459;28;21023;-61
2023/11/17 08:01:47;;;;;;;5.07;4.67;;;4.60;99.90;;;;;;5036937;28;20527;-62
2023/11/17 08:04:16;;;;;;;5.40;4.60;;;4.60;99.90;;;;;;5036530;28;20470;-62
2023/11/17 08:06:46;;;;;;;5.13;4.70;;;4.60;99.90;;;;;;5039538;28;20863;-62
2023/11/17 08:09:16;;;;;;;5.07;4.57;;;4.60;99.90;;;;;;5035788;28;20536;-62
2023/11/17 08:11:45;;;;;;;4.97;4.57;;;4.70;99.90;;;;;;5038761;28;20475;-61
2023/11/17 08:14:13;;;;;;;5.70;5.20;;;4.70;99.90;;;;;;5039439;28;20485;-62
2023/11/17 08:16:42;;;;;;;5.70;5.20;;;4.60;99.90;;;;;;5040275;28;20569;-62
2023/11/17 08:19:11;;;;;;;5.53;5.10;;;4.60;99.90;;;;;;5028983;28;20490;-62
2023/11/17 08:21:53;;;;;;;5.50;5.10;;;4.70;99.90;;;;;;5036592;28;20481;-62
2023/11/17 08:24:22;;;;;;;6.17;5.67;;;4.60;99.90;;;;;;5036835;28;20536;-61
2023/11/17 08:26:51;;;;;;;5.30;4.90;;;4.60;99.90;;;;;;5037668;28;20467;-61
2023/11/17 08:29:20;;;;;;;5.20;4.80;;;4.70;99.90;;;;;;5036752;28;20482;-62
2023/11/17 08:31:54;;;;;;;7.27;4.93;;;4.70;99.90;;;;;;5032263;28;20486;-62
2023/11/17 08:34:23;;;;;;;4.93;4.30;;;4.70;99.90;;;;;;5033135;28;20563;-62
2023/11/17 08:36:51;;;;;;;5.13;3.50;;;4.70;99.90;;;;;;5035481;28;20817;-62
2023/11/17 08:39:26;;;;;;;4.13;3.73;;;4.70;99.90;;;;;;5037305;28;21082;-62
2023/11/17 08:41:56;;;;;;;4.33;4.00;;;4.70;99.90;;;;;;5038432;28;20577;-62
2023/11/17 08:44:25;;;;;;;4.20;3.90;;;4.80;99.90;;;;;;5032682;28;20470;-62
2023/11/17 08:46:54;;;;;;;3.90;3.60;;;4.80;99.90;;;;;;5035891;28;20470;-61
2023/11/17 08:49:22;;;;;;;3.80;3.50;;;4.90;99.90;;;;;;5026328;28;21032;-61
2023/11/17 08:51:51;;;;;;;3.70;3.40;;;4.90;99.90;;;;;;5040479;28;20498;-62
2023/11/17 08:54:19;;;;;;;3.70;3.40;;;4.90;99.90;;;;;;5037888;28;20467;-62
2023/11/17 08:56:48;;;;;;;3.60;3.07;;;4.90;99.90;;;;;;5035940;28;20873;-61
2023/11/17 08:59:16;;;;;;;4.00;3.70;;;4.90;99.90;;;;;;5033089;28;20557;-61
2023/11/17 09:01:45;;;;;;;4.30;3.97;;;4.90;99.90;;;;;;5037747;28;20470;-61
2023/11/17 09:04:14;;;;;;;5.73;4.90;;;4.90;99.90;;;;;;5036002;28;21583;-62
2023/11/17 09:06:43;;;;;;;5.00;4.60;;;4.90;99.90;;;;;;5034171;28;20505;-61
2023/11/17 09:09:12;;;;;;;4.87;4.57;;;5.00;99.90;;;;;;5034082;28;20478;-60
2023/11/17 09:11:58;;;;;;;5.30;4.90;;;5.00;99.90;;;;;;5035732;28;20490;-62
2023/11/17 09:14:27;;;;;;;5.30;4.90;;;4.90;99.90;;;;;;5039310;28;20466;-62
2023/11/17 09:17:01;;;;;;;5.43;5.13;;;4.90;99.90;;;;;;5037207;28;20528;-62
2023/11/17 09:19:35;;;;;;;4.80;4.50;;;4.90;99.90;;;;;;5030756;28;21085;-62
2023/11/17 09:22:04;;;;;;;4.27;3.97;;;4.90;99.90;;;;;;5038076;28;21069;-62
2023/11/17 09:24:33;;;;;;;4.57;4.27;;;4.90;99.90;;;;;;5039538;28;20478;-62
2023/11/17 09:27:03;;;;;;;4.23;3.83;;;4.90;99.90;;;;;;5035275;28;20546;-61
2023/11/17 09:29:33;;;;;;;3.40;3.10;;;5.00;99.90;;;;;;5039825;28;20483;-61
2023/11/17 09:32:02;;;;;;;2.83;2.60;;;5.00;99.90;;;;;;5055405;28;20481;-61
2023/11/17 09:34:31;;;;;;;2.30;2.10;;;5.10;99.90;;;;;;5054166;28;20499;-61
2023/11/17 09:36:59;;;;;;;2.60;2.40;;;5.10;99.90;;;;;;5044589;28;20550;-62
2023/11/17 09:39:27;;;;;;;2.97;2.77;;;5.10;99.90;;;;;;5036166;28;20518;-62
2023/11/17 09:41:58;;;;;;;3.40;2.50;;;5.10;99.90;;;;;;5035575;28;20915;-61
2023/11/17 09:44:28;;;;;;;2.90;2.70;;;5.10;99.90;;;;;;5032039;28;22556;-62
2023/11/17 09:47:11;;;;;;;2.40;2.20;;;5.10;99.90;;;;;;5031241;28;20477;-61
2023/11/17 09:49:42;;;;;;;2.77;2.57;;;5.10;99.90;;;;;;5033656;28;20479;-62
2023/11/17 09:52:14;;;;;;;3.00;2.80;;;5.20;99.90;;;;;;5038245;28;20570;-61
2023/11/17 09:54:44;;;;;;;2.70;2.50;;;5.20;99.90;;;;;;5040531;28;20477;-61
2023/11/17 09:57:13;;;;;;;2.67;2.47;;;5.30;99.90;;;;;;5037797;28;20582;-62
2023/11/17 09:59:43;;;;;;;3.13;2.93;;;5.30;99.90;;;;;;5037575;28;20486;-61
2023/11/17 10:02:15;;;;;;;3.10;2.90;;;5.30;99.90;;;;;;5033869;28;21139;-62
2023/11/17 10:04:44;;;;;;;2.30;2.20;;;5.30;99.90;;;;;;5033884;28;20471;-62
2023/11/17 10:07:15;;;;;;;2.10;1.90;;;5.30;99.90;;;;;;5037183;28;20470;-62
2023/11/17 10:09:45;;;;;;;2.37;2.17;;;5.30;99.90;;;;;;5039953;28;20475;-62
2023/11/17 10:12:14;;;;;;;2.90;2.60;;;5.30;99.90;;;;;;5039096;28;20548;-62
2023/11/17 10:14:44;;;;;;;2.97;2.20;;;5.30;99.90;;;;;;5038680;28;21266;-62
2023/11/17 10:17:17;;;;;;;2.70;2.50;;;5.30;99.90;;;;;;5036216;28;20542;-65
2023/11/17 10:19:49;;;;;;;2.53;1.80;;;5.30;99.90;;;;;;5038555;28;20486;-62
2023/11/17 10:22:17;;;;;;;1.80;1.70;;;5.30;99.90;;;;;;5039054;28;20518;-62
2023/11/17 10:24:46;;;;;;;1.77;1.67;;;5.30;99.90;;;;;;5037499;28;20471;-61
2023/11/17 10:27:17;;;;;;;2.10;1.90;;;5.30;99.90;;;;;;5042945;28;20459;-61
2023/11/17 10:29:48;;;;;;;1.57;1.47;;;5.30;99.90;;;;;;5043895;28;20475;-61
2023/11/17 10:32:23;;;;;;;1.80;1.70;;;5.40;99.90;;;;;;5031333;28;21196;-62
2023/11/17 10:35:16;;;;;;;1.40;1.30;;;5.40;99.90;;;;;;5035772;28;20443;-62
2023/11/17 10:37:48;;;;;;;1.60;1.50;;;5.40;99.90;;;;;;5042573;28;20483;-62
2023/11/17 10:40:24;;;;;;;1.70;1.60;;;5.50;99.90;;;;;;5036357;28;20564;-62
2023/11/17 10:43:07;;;;;;;1.77;1.67;;;5.50;99.90;;;;;;5041199;28;21210;-62
2023/11/17 10:45:37;;;;;;;2.80;1.80;;;5.50;99.90;;;;;;5041711;28;21025;-62
2023/11/17 10:48:07;;;;;;;1.93;1.83;;;5.50;99.90;;;;;;5041439;28;20913;-62
2023/11/17 10:50:38;;;;;;;2.30;1.63;;;5.60;99.90;;;;;;5037137;28;20493;-62
2023/11/17 10:53:20;;;;;;;1.70;1.60;;;5.70;99.90;;;;;;5042893;28;20492;-61
2023/11/17 10:55:53;;;;;;;1.70;1.43;;;5.70;99.90;;;;;;5039986;28;20827;-61
2023/11/17 10:58:21;;;;;;;1.33;1.23;;;5.70;99.90;;;;;;5037098;28;20490;-62
2023/11/17 11:00:52;;;;;;;1.47;1.37;;;5.70;99.90;;;;;;5037334;28;20499;-62
2023/11/17 11:03:22;;;;;;;2.00;1.63;;;5.80;99.90;;;;;;5040644;28;20498;-62
2023/11/17 11:05:58;;;;;;;1.53;1.43;;;5.80;99.90;;;;;;5038985;28;20478;-62
2023/11/17 11:08:28;;;;;;;1.70;1.60;;;5.80;99.90;;;;;;5035768;28;20494;-63
2023/11/17 11:10:57;;;;;;;1.60;1.50;;;5.80;99.90;;;;;;5042752;28;20469;-61
2023/11/17 11:13:30;;;;;;;1.50;1.40;;;5.90;99.90;;;;;;5041524;28;20493;-61
2023/11/17 11:16:05;;;;;;;1.60;1.50;;;5.90;99.90;;;;;;5034680;28;20536;-61
2023/11/17 11:18:36;;;;;;;1.53;1.43;;;5.90;99.90;;;;;;5038591;28;21156;-61
2023/11/17 11:21:08;;;;;;;1.40;1.30;;;5.90;99.90;;;;;;5040275;28;20582;-62
2023/11/17 11:23:37;;;;;;;1.63;1.53;;;5.90;99.90;;;;;;5039597;28;20494;-62
2023/11/17 11:26:06;;;;;;;1.50;1.40;;;5.90;99.90;;;;;;5038025;28;20470;-61
2023/11/17 11:28:34;;;;;;;1.43;1.33;;;5.90;99.90;;;;;;5037573;28;20587;-61
2023/11/17 11:31:03;;;;;;;1.43;1.23;;;6.00;99.90;;;;;;5038905;28;20466;-66
2023/11/17 11:33:31;;;;;;;1.60;1.50;;;6.00;99.90;;;;;;5039284;28;20494;-65
2023/11/17 11:35:59;;;;;;;3.40;1.20;;;6.00;99.90;;;;;;5036310;28;20562;-65
2023/11/17 11:38:29;;;;;;;1.90;1.60;;;6.00;99.90;;;;;;5036644;28;20991;-65
2023/11/17 11:40:58;;;;;;;1.40;1.27;;;6.10;99.90;;;;;;5041700;28;21097;-65
2023/11/17 11:43:27;;;;;;;1.80;1.23;;;6.10;99.90;;;;;;5038827;28;20494;-65
2023/11/17 11:45:57;;;;;;;1.63;1.53;;;6.10;99.90;;;;;;5039971;28;20985;-61
2023/11/17 11:48:30;;;;;;;1.57;1.40;;;6.20;99.90;;;;;;5037159;28;20578;-62
2023/11/17 11:50:58;;;;;;;1.50;1.40;;;6.20;99.90;;;;;;5036167;28;20475;-62
2023/11/17 11:53:36;;;;;;;1.30;1.20;;;6.30;99.90;;;;;;5036945;28;20492;-61
2023/11/17 11:56:11;;;;;;;1.33;1.23;;;6.30;99.90;;;;;;5039464;28;20471;-62
2023/11/17 11:58:47;;;;;;;1.60;1.50;;;6.30;99.90;;;;;;5038987;28;21034;-62
2023/11/17 12:01:17;;;;;;;1.73;1.57;;;6.30;99.90;;;;;;5036315;28;20485;-62
2023/11/17 12:03:47;;;;;;;1.37;1.23;;;6.30;99.90;;;;;;5038471;28;20486;-62
2023/11/17 12:06:23;;;;;;;1.70;1.60;;;6.30;99.90;;;;;;5039199;28;20471;-62
2023/11/17 12:08:55;;;;;;;1.40;1.30;;;6.30;99.90;;;;;;5030269;28;20525;-62
2023/11/17 12:11:24;;;;;;;1.50;1.40;;;6.30;99.90;;;;;;5034903;28;20481;-61
2023/11/17 12:13:54;;;;;;;2.97;1.60;;;6.30;99.90;;;;;;5038720;28;20490;-61
2023/11/17 12:16:32;;;;;;;1.40;1.30;;;6.30;99.90;;;;;;5039872;28;20520;-62
2023/11/17 12:19:03;;;;;;;1.67;1.50;;;6.30;99.90;;;;;;5023884;28;20575;-62
2023/11/17 12:21:38;;;;;;;1.50;1.40;;;6.30;99.90;;;;;;5033874;28;20494;-61
2023/11/17 12:24:10;;;;;;;1.70;1.53;;;6.30;99.90;;;;;;5037203;28;20964;-62
2023/11/17 12:26:40;;;;;;;1.43;1.33;;;6.30;99.90;;;;;;5050376;28;21041;-62
2023/11/17 12:29:11;;;;;;;1.77;1.57;;;6.30;99.90;;;;;;5049885;28;20495;-62
2023/11/17 12:31:40;;;;;;;1.60;1.50;;;6.30;99.90;;;;;;5051685;28;20460;-62
2023/11/17 12:34:11;;;;;;;2.13;1.70;;;6.30;99.90;;;;;;5050314;28;20462;-62
2023/11/17 12:36:40;;;;;;;1.60;1.50;;;6.30;99.90;;;;;;5036677;28;20464;-62
2023/11/17 12:39:11;;;;;;;1.80;1.70;;;6.20;99.90;;;;;;5036025;28;20479;-62
2023/11/17 12:41:39;;;;;;;2.10;1.50;;;6.20;99.90;;;;;;5039110;28;20505;-62
2023/11/17 12:44:08;;;;;;;2.23;1.70;;;6.30;99.90;;;;;;5037692;28;20524;-62
2023/11/17 12:46:36;;;;;;;1.90;1.40;;;6.30;99.90;;;;;;5039455;28;21329;-61
2023/11/17 12:49:05;;;;;;;1.43;1.30;;;6.20;99.90;;;;;;5035457;28;20536;-61
2023/11/17 12:51:33;;;;;;;1.33;1.23;;;6.20;99.90;;;;;;5036599;28;20516;-61
2023/11/17 12:54:05;;;;;;;1.90;1.30;;;6.20;99.90;;;;;;5033275;28;20858;-62
2023/11/17 12:56:34;;;;;;;1.57;1.47;;;6.20;99.90;;;;;;5031240;28;21008;-62
2023/11/17 12:59:04;;;;;;;1.50;1.40;;;6.20;99.90;;;;;;5026031;28;20590;-62
2023/11/17 13:01:32;;;;;;;1.47;1.37;;;6.20;99.90;;;;;;5026665;28;20604;-62
2023/11/17 13:04:00;;;;;;;1.70;1.60;;;6.20;99.90;;;;;;5027493;28;20493;-62
2023/11/17 13:06:31;;;;;;;1.53;1.43;;;6.20;99.90;;;;;;5037473;28;20467;-62
2023/11/17 13:08:59;;;;;;;1.80;1.70;;;6.10;99.90;;;;;;5038035;28;20470;-61
2023/11/17 13:11:32;;;;;;;2.10;1.47;;;6.20;99.90;;;;;;5032531;28;20615;-61
2023/11/17 13:14:08;;;;;;;1.50;1.40;;;6.20;99.90;;;;;;5033967;28;20570;-62